Landing, NJ (07850)

3:43 AM EDT on November 01, 2014 (GMT -0400)
Top of MTA | Change Station
CLOSE
Current Station
Personal Weather Station
Location: Mount Arlington, NJ
Elevation: 1178 ft
Nearby Weather Stations

Elev 1178 ft 40.91 °N, 74.64 °W | Updated 4 minutes ago

Overcast
Overcast
42.4 °F
Feels Like 42 °F
N
0.0
Wind Variable Wind from East

Today
High -- | Low -- °F
--% Chance of Precip.
Yesterday
High -- | Low -- °F
Precip. -- in
7:29 AM 5:54 PM
Waxing Gibbous, 64% visible
Pressure 29.85 in
Visibility 10.0 miles
Clouds Overcast 3100 ft
Windchill 42 °F
Dew Point 38 °F
Humidity 84%
Rainfall 0.00 in
Snow Depth Not available.
UV 0 out of 12
Pollen .50 out of 12
Air Quality Not available.
Flu Activity Not available.
METAR KMMU 010735Z AUTO 03004KT 10SM OVC031 08/05 A2985 RMK AO2

More Conditions Fewer Conditions

Pressure 29.85 in
Visibility 10.0 miles
Clouds Overcast 3100 ft
Windchill 42 °F
Dew Point 38 °F
Humidity 84%
Rainfall 0.00 in
Snow Depth Not available.
UV 0 out of 12
Pollen .50 out of 12
Air Quality Not available.
Flu Activity Not available.
METAR KMMU 010735Z AUTO 03004KT 10SM OVC031 08/05 A2985 RMK AO2

More Conditions Fewer Conditions

Nowcast | as of 2:35 am EDT on November 1, 2014

Rain showers will move across the area and increase in coverage through the early morning hours. Most rain is expected to be light and only amount to a couple of hundredths of an inch per hour where it falls. Northeast winds around 10 to 15 mph with gusts around 20 mph will continue.

×

10-Day Weather Forecast

Almanac

Astronomy

Nov. 01, 2014 Rise Set
Actual Time
Civil Twilight
Nautical Twilight
Astronomical Twilight
Moon
Length of Visible Light
Length of Day
Tomorrow will be .
, % of the Moon is Illuminated

Today's Extremes

State Highs State Lows

Community

WunderPhotos

Upload Photos

1,766,866 photos uploaded!

WunderBlogs® & News

Nearby

Air Quality

  Air Quality AQ Index Pollutant
Not available.

Snow Depth

Station Depth Elevation

Earthquake Activity

City Distance Mag. Time & Date
Minimum magnitude displayed is 2.5.

Coastal Water Temperatures

Place Temperature

Nearby Weather Stations